createdAt,value
2023-03-06T00:02:01.183Z,96112.34
2023-03-06T00:04:27.834Z,96119.72
2023-03-06T00:06:54.557Z,96114.19
2023-03-06T00:09:22.352Z,96109.69
2023-03-06T00:11:49.027Z,96104.97
2023-03-06T00:14:15.691Z,96103.97
2023-03-06T00:16:42.603Z,96105.41
2023-03-06T00:19:09.254Z,96099.06
2023-03-06T00:21:35.918Z,96105.22
2023-03-06T00:24:02.562Z,96098.84
2023-03-06T00:26:29.200Z,96104.97
2023-03-06T00:28:55.906Z,96098.66
2023-03-06T00:31:22.619Z,96099.88
2023-03-06T00:33:49.302Z,96109.69
2023-03-06T00:36:15.977Z,96096.41
2023-03-06T00:38:42.608Z,96101.91
2023-03-06T00:41:10.090Z,96095.78
2023-03-06T00:43:36.983Z,96092.09
2023-03-06T00:46:03.725Z,96097.81
2023-03-06T00:48:30.356Z,96103.13
2023-03-06T00:50:57.172Z,96098.81
2023-03-06T00:53:23.913Z,96107.63
2023-03-06T00:55:50.878Z,96094.94
2023-03-06T00:58:17.639Z,96095.34
2023-03-06T01:00:44.393Z,96091.28
2023-03-06T01:03:11.190Z,96084.31
2023-03-06T01:05:38.220Z,96085.13
2023-03-06T01:08:05.308Z,96091.88
2023-03-06T01:10:32.203Z,96083.91
2023-03-06T01:12:58.890Z,96079.78
2023-03-06T01:15:25.719Z,96076.31
2023-03-06T01:17:53.383Z,96074.47
2023-03-06T01:20:20.070Z,96072.00
2023-03-06T01:22:46.706Z,96071.78
2023-03-06T01:25:13.328Z,96075.50
2023-03-06T01:27:40.120Z,96060.16
2023-03-06T01:30:07.297Z,96057.72
2023-03-06T01:32:33.992Z,96058.53
2023-03-06T01:35:00.688Z,96058.09
2023-03-06T01:37:27.322Z,96059.97
2023-03-06T01:39:53.991Z,96057.72
2023-03-06T01:42:20.748Z,96052.78
2023-03-06T01:45:16.791Z,96039.50
2023-03-06T01:47:43.498Z,96035.59
2023-03-06T01:50:10.445Z,96036.63
2023-03-06T01:52:42.957Z,96037.66
2023-03-06T01:55:15.645Z,96029.06
2023-03-06T01:57:46.916Z,96022.72
2023-03-06T02:00:15.426Z,96029.06
2023-03-06T02:02:43.563Z,96029.47
2023-03-06T02:05:10.245Z,96029.66
2023-03-06T02:07:37.200Z,96028.22
2023-03-06T02:10:04.594Z,96031.69
2023-03-06T02:12:31.256Z,96025.78
2023-03-06T02:14:57.893Z,96025.78
2023-03-06T02:17:24.639Z,96017.41
2023-03-06T02:20:10.944Z,96018.41
2023-03-06T02:22:46.519Z,96023.72
2023-03-06T02:25:28.178Z,96023.31
2023-03-06T02:27:54.860Z,96020.06
2023-03-06T02:30:21.725Z,96017.19
2023-03-06T02:32:48.359Z,96012.47
2023-03-06T02:35:28.190Z,96014.53
2023-03-06T02:37:54.839Z,96012.28
2023-03-06T02:40:21.686Z,96008.59
2023-03-06T02:42:49.708Z,95999.38
2023-03-06T02:45:20.236Z,96002.03
2023-03-06T02:47:46.854Z,95997.97
2023-03-06T02:50:13.522Z,95993.66
2023-03-06T02:52:40.144Z,96000.81
2023-03-06T02:55:07.249Z,95990.59
2023-03-06T02:57:33.882Z,95988.75
2023-03-06T03:00:00.504Z,95991.63
2023-03-06T03:02:27.233Z,95988.97
2023-03-06T03:04:54.036Z,95980.78
2023-03-06T03:07:21.847Z,95980.97
2023-03-06T03:09:48.518Z,95982.41
2023-03-06T03:12:15.147Z,95975.06
2023-03-06T03:14:41.832Z,95991.63
2023-03-06T03:17:08.443Z,95991.00
2023-03-06T03:19:35.052Z,95989.75
2023-03-06T03:22:01.639Z,95986.69
2023-03-06T03:24:28.282Z,95986.47
2023-03-06T03:26:54.932Z,95987.72
2023-03-06T03:29:21.779Z,95988.94
2023-03-06T03:31:48.553Z,95988.94
2023-03-06T03:34:15.676Z,95988.13
2023-03-06T03:36:42.386Z,95989.13
2023-03-06T03:39:09.037Z,95992.41
2023-03-06T03:41:35.629Z,95988.13
2023-03-06T03:44:02.257Z,95982.38
2023-03-06T03:46:28.969Z,95984.22
2023-03-06T03:48:55.977Z,95983.22
2023-03-06T03:51:22.657Z,95975.03
2023-03-06T03:53:49.320Z,95977.91
2023-03-06T03:56:16.097Z,95978.50
2023-03-06T03:58:42.777Z,95979.72
2023-03-06T04:01:09.403Z,95968.88
2023-03-06T04:03:36.129Z,95969.53
2023-03-06T04:06:02.862Z,95965.22
2023-03-06T04:08:29.562Z,95964.63
2023-03-06T04:10:56.197Z,95974.41
2023-03-06T04:13:24.540Z,95970.16
2023-03-06T04:15:52.087Z,95965.03
2023-03-06T04:18:18.918Z,95968.91
2023-03-06T04:20:45.685Z,95965.44
2023-03-06T04:23:12.336Z,95972.19
2023-03-06T04:25:39.014Z,95973.19
2023-03-06T04:28:05.811Z,95967.47
2023-03-06T04:30:32.679Z,95965.44
2023-03-06T04:32:59.359Z,95970.97
2023-03-06T04:35:25.986Z,95962.78
2023-03-06T04:37:52.694Z,95966.03
2023-03-06T04:40:21.099Z,95953.59
2023-03-06T04:42:48.147Z,95964.00
2023-03-06T04:45:15.253Z,95961.56
2023-03-06T04:47:42.344Z,95957.47
2023-03-06T04:50:09.803Z,95960.13
2023-03-06T04:52:36.444Z,95960.34
2023-03-06T04:55:03.408Z,95965.66
2023-03-06T04:57:30.033Z,95954.41
2023-03-06T04:59:56.753Z,95965.22
2023-03-06T05:02:23.470Z,95959.09
2023-03-06T05:04:50.138Z,95964.22
2023-03-06T05:07:16.811Z,95958.25
2023-03-06T05:09:43.435Z,95956.63
2023-03-06T05:12:10.068Z,95958.69
2023-03-06T05:14:36.684Z,95959.69
2023-03-06T05:17:03.319Z,95958.25
2023-03-06T05:19:30.054Z,95960.69
2023-03-06T05:21:56.675Z,95959.69
2023-03-06T05:24:23.309Z,95953.34
2023-03-06T05:26:49.981Z,95952.94
2023-03-06T05:29:16.654Z,95963.97
2023-03-06T05:31:43.972Z,95966.44
2023-03-06T05:34:13.468Z,95969.72
2023-03-06T05:36:40.070Z,95975.63
2023-03-06T05:39:07.092Z,95974.41
2023-03-06T05:41:33.788Z,95966.03
2023-03-06T05:44:00.377Z,95971.34
2023-03-06T05:46:28.142Z,95973.19
2023-03-06T05:48:54.944Z,95975.63
2023-03-06T05:51:21.600Z,95970.31
2023-03-06T05:53:49.613Z,95972.59
2023-03-06T05:56:16.271Z,95969.53
2023-03-06T05:58:42.947Z,95964.78
2023-03-06T06:01:13.796Z,95969.09
2023-03-06T06:03:40.603Z,95965.22
2023-03-06T06:06:08.479Z,95965.84
2023-03-06T06:08:35.509Z,95965.63
2023-03-06T06:11:02.189Z,95970.31
2023-03-06T06:13:28.798Z,95976.69
2023-03-06T06:15:55.446Z,95973.41
2023-03-06T06:18:22.139Z,95975.47
2023-03-06T06:20:48.799Z,95968.31
2023-03-06T06:23:15.483Z,95973.41
2023-03-06T06:25:42.173Z,95970.13
2023-03-06T06:28:08.832Z,95970.97
2023-03-06T06:30:35.555Z,95978.72
2023-03-06T06:33:03.203Z,95973.00
2023-03-06T06:35:29.891Z,95978.31
2023-03-06T06:37:56.583Z,95974.66
2023-03-06T06:40:23.247Z,95967.28
2023-03-06T06:42:49.972Z,95974.47
2023-03-06T06:45:16.643Z,95975.69
2023-03-06T06:47:43.279Z,95991.81
2023-03-06T06:50:14.050Z,95979.56
2023-03-06T06:52:40.740Z,95992.84
2023-03-06T06:55:07.982Z,95988.16
2023-03-06T06:57:34.652Z,95988.97
2023-03-06T07:00:03.132Z,95992.66
2023-03-06T07:02:29.804Z,95992.03
2023-03-06T07:05:04.215Z,95995.88
2023-03-06T07:07:34.073Z,95999.34
2023-03-06T07:10:00.796Z,95998.72
2023-03-06T07:12:27.443Z,95989.69
2023-03-06T07:14:54.081Z,95996.59
2023-03-06T07:17:20.748Z,95996.59
2023-03-06T07:19:47.412Z,95989.59
2023-03-06T07:22:14.085Z,95996.91
2023-03-06T07:24:40.688Z,95984.22
2023-03-06T07:27:08.442Z,95994.38
2023-03-06T07:29:35.060Z,95987.19
2023-03-06T07:32:01.757Z,95988.56
2023-03-06T07:34:28.418Z,95992.63
2023-03-06T07:36:55.098Z,95985.56
2023-03-06T07:39:22.093Z,95989.22
2023-03-06T07:41:48.714Z,95996.13
2023-03-06T07:44:15.428Z,95993.44
2023-03-06T07:46:42.200Z,95988.88
2023-03-06T07:49:08.837Z,95997.03
2023-03-06T07:51:35.802Z,95993.88
2023-03-06T07:54:02.477Z,95994.66
2023-03-06T07:56:29.206Z,95991.81
2023-03-06T07:58:57.025Z,95992.16
2023-03-06T08:01:23.751Z,95993.50
2023-03-06T08:03:50.566Z,95992.59
2023-03-06T08:06:21.728Z,95996.25
2023-03-06T08:08:48.667Z,95991.94
2023-03-06T08:11:16.194Z,96000.63
2023-03-06T08:13:43.054Z,96007.88
2023-03-06T08:16:10.024Z,96007.03
2023-03-06T08:18:36.963Z,96001.06
2023-03-06T08:21:04.939Z,95994.44
2023-03-06T08:23:31.656Z,96000.56
2023-03-06T08:25:59.092Z,96005.53
2023-03-06T08:28:25.923Z,96004.53
2023-03-06T08:30:52.587Z,95995.50
2023-03-06T08:33:19.275Z,96005.28
2023-03-06T08:35:45.972Z,96010.50
2023-03-06T08:38:12.707Z,96007.81
2023-03-06T08:40:39.337Z,96011.09
2023-03-06T08:43:09.135Z,96010.34
2023-03-06T08:45:35.812Z,96003.66
2023-03-06T08:48:02.433Z,96012.59
2023-03-06T08:50:29.377Z,96009.19
2023-03-06T08:52:56.005Z,96014.53
2023-03-06T08:55:22.763Z,96017.47
2023-03-06T08:57:49.422Z,96013.59
2023-03-06T09:00:16.850Z,96009.78
2023-03-06T09:02:43.666Z,96014.72
2023-03-06T09:05:10.591Z,96013.84
2023-03-06T09:07:37.291Z,96010.38
2023-03-06T09:10:04.114Z,96010.50
2023-03-06T09:12:32.676Z,96008.66
2023-03-06T09:15:04.938Z,96006.13
2023-03-06T09:17:31.661Z,96013.13
2023-03-06T09:19:58.378Z,96008.78
2023-03-06T09:22:25.108Z,96005.81
2023-03-06T09:24:51.774Z,96014.91
2023-03-06T09:27:18.443Z,96017.22
2023-03-06T09:29:45.112Z,96017.69
2023-03-06T09:32:12.235Z,96012.78
2023-03-06T09:34:38.997Z,96013.47
2023-03-06T09:37:05.644Z,96013.13
2023-03-06T09:39:32.338Z,96017.06
2023-03-06T09:42:01.293Z,96012.97
2023-03-06T09:44:32.085Z,96019.25
2023-03-06T09:47:11.083Z,96006.88
2023-03-06T09:49:49.649Z,96011.25
2023-03-06T09:52:26.692Z,96001.53
2023-03-06T09:55:14.143Z,96000.41
2023-03-06T09:57:51.154Z,96007.31
2023-03-06T10:00:39.767Z,96006.78
2023-03-06T10:03:25.071Z,95998.22
2023-03-06T10:06:02.972Z,95998.63
2023-03-06T10:08:35.554Z,96003.59
2023-03-06T10:11:03.774Z,96000.59
2023-03-06T10:13:43.152Z,95998.13
2023-03-06T10:16:27.896Z,95991.19
2023-03-06T10:18:55.462Z,95985.84
2023-03-06T10:21:59.212Z,95982.22
2023-03-06T10:24:52.945Z,95993.66
2023-03-06T10:28:12.130Z,95989.13
2023-03-06T10:30:42.429Z,95983.31
2023-03-06T10:33:21.237Z,95988.09
2023-03-06T10:35:48.548Z,95983.06
2023-03-06T10:38:22.233Z,95983.66
2023-03-06T10:41:15.013Z,95982.25
2023-03-06T10:43:45.885Z,95982.63
2023-03-06T10:46:13.831Z,95985.56
2023-03-06T10:48:42.254Z,95972.25
2023-03-06T10:51:17.780Z,95968.22
2023-03-06T10:53:55.091Z,95975.03
2023-03-06T10:56:31.015Z,95975.25
2023-03-06T10:59:19.837Z,95972.25
2023-03-06T11:01:48.122Z,95973.31
2023-03-06T11:04:31.608Z,95967.13
2023-03-06T11:07:06.235Z,95965.03
2023-03-06T11:09:33.149Z,95965.28
2023-03-06T11:12:51.090Z,95967.97
2023-03-06T11:15:20.160Z,95957.50
2023-03-06T11:17:49.526Z,95957.63
2023-03-06T11:20:24.178Z,95955.06
2023-03-06T11:22:59.630Z,95960.06
2023-03-06T11:25:46.031Z,95954.81
2023-03-06T11:28:33.781Z,95949.94
2023-03-06T11:31:06.359Z,95947.47
2023-03-06T11:33:35.638Z,95945.97
2023-03-06T11:36:39.723Z,95949.22
2023-03-06T11:39:21.418Z,95952.00
2023-03-06T11:41:56.906Z,95943.31
2023-03-06T11:44:45.133Z,95929.88
2023-03-06T11:47:57.139Z,95926.66
2023-03-06T11:50:42.699Z,95921.75
2023-03-06T11:53:33.195Z,95921.16
2023-03-06T11:56:18.332Z,95919.28
2023-03-06T11:59:00.649Z,95912.09
2023-03-06T12:01:35.375Z,95908.66
2023-03-06T12:04:20.213Z,95907.75
2023-03-06T12:07:07.935Z,95900.13
2023-03-06T12:09:34.510Z,95898.94
2023-03-06T12:12:32.164Z,95898.81
2023-03-06T12:15:04.713Z,95891.88
2023-03-06T12:17:37.002Z,95886.41
2023-03-06T12:20:14.150Z,95884.03
2023-03-06T12:22:53.367Z,95879.00
2023-03-06T12:25:31.569Z,95872.34
2023-03-06T12:28:13.287Z,95874.63
2023-03-06T12:31:05.629Z,95864.81
2023-03-06T12:33:38.082Z,95860.94
2023-03-06T12:36:29.097Z,95861.03
2023-03-06T12:39:11.042Z,95857.84
2023-03-06T12:41:50.289Z,95855.75
2023-03-06T12:44:59.554Z,95839.41
2023-03-06T12:47:27.485Z,95841.72
2023-03-06T12:49:59.351Z,95832.56
2023-03-06T12:52:30.509Z,95834.31
2023-03-06T12:55:01.049Z,95835.34
2023-03-06T12:57:27.671Z,95826.81
2023-03-06T12:59:54.339Z,95825.41
2023-03-06T13:02:36.092Z,95827.03
2023-03-06T13:05:06.537Z,95827.03
2023-03-06T13:07:35.746Z,95820.63
2023-03-06T13:10:30.900Z,95822.81
2023-03-06T13:13:04.127Z,95821.84
2023-03-06T13:15:38.525Z,95806.94
2023-03-06T13:18:37.248Z,95817.94
2023-03-06T13:21:03.964Z,95801.06
2023-03-06T13:23:30.472Z,95801.25
2023-03-06T13:25:58.367Z,95799.47
2023-03-06T13:28:25.985Z,95794.25
2023-03-06T13:30:53.373Z,95791.97
2023-03-06T13:33:40.151Z,95800.09
2023-03-06T13:36:29.577Z,95805.13
2023-03-06T13:39:23.189Z,95803.69
2023-03-06T13:41:52.402Z,95802.06
2023-03-06T13:44:24.821Z,95799.69
2023-03-06T13:47:08.041Z,95797.69
2023-03-06T13:49:34.730Z,95792.13
2023-03-06T13:52:10.677Z,95797.00
2023-03-06T13:54:52.700Z,95785.88
2023-03-06T13:57:25.438Z,95789.06
2023-03-06T14:00:13.232Z,95786.13
2023-03-06T14:02:47.242Z,95775.16
2023-03-06T14:05:14.583Z,95781.72
2023-03-06T14:07:48.007Z,95774.66
2023-03-06T14:10:14.566Z,95779.59
2023-03-06T14:12:43.036Z,95780.91
2023-03-06T14:15:16.538Z,95782.88
2023-03-06T14:17:52.907Z,95782.22
2023-03-06T14:20:19.888Z,95778.78
2023-03-06T14:22:46.623Z,95776.28
2023-03-06T14:25:20.671Z,95779.41
2023-03-06T14:27:48.983Z,95778.66
2023-03-06T14:30:19.984Z,95770.34
2023-03-06T14:32:47.090Z,95776.84
2023-03-06T14:35:28.383Z,95769.44
2023-03-06T14:38:00.733Z,95766.00
2023-03-06T14:40:40.889Z,95765.72
2023-03-06T14:43:12.283Z,95764.50
2023-03-06T14:45:51.325Z,95757.41
2023-03-06T14:48:18.137Z,95752.03
2023-03-06T14:50:51.921Z,95760.50
2023-03-06T14:53:19.447Z,95755.69
2023-03-06T14:55:53.957Z,95750.56
2023-03-06T14:58:25.917Z,95758.47
2023-03-06T15:00:52.859Z,95739.81
2023-03-06T15:03:46.409Z,95750.72
2023-03-06T15:06:20.785Z,95743.78
2023-03-06T15:08:48.697Z,95740.78
2023-03-06T15:11:15.352Z,95742.31
2023-03-06T15:13:41.982Z,95741.75
2023-03-06T15:16:23.650Z,95745.31
2023-03-06T15:19:00.804Z,95738.25
2023-03-06T15:21:35.301Z,95740.44
2023-03-06T15:24:01.902Z,95741.06
2023-03-06T15:26:38.366Z,95736.19
2023-03-06T15:29:11.101Z,95740.41
2023-03-06T15:31:39.071Z,95738.38
2023-03-06T15:34:08.346Z,95737.75
2023-03-06T15:36:56.044Z,95744.53
2023-03-06T15:39:31.519Z,95748.09
2023-03-06T15:42:20.080Z,95739.75
2023-03-06T15:44:51.021Z,95739.88
2023-03-06T15:47:17.626Z,95747.63
2023-03-06T15:49:44.420Z,95744.22
2023-03-06T15:52:11.240Z,95744.19
2023-03-06T15:54:38.224Z,95746.47
2023-03-06T15:57:05.807Z,95745.91
2023-03-06T15:59:32.453Z,95751.84
2023-03-06T16:02:02.958Z,95752.16
2023-03-06T16:04:30.387Z,95746.31
2023-03-06T16:06:57.036Z,95740.53
2023-03-06T16:09:23.673Z,95748.09
2023-03-06T16:11:50.282Z,95750.31
2023-03-06T16:14:22.846Z,95752.63
2023-03-06T16:16:50.704Z,95755.91
2023-03-06T16:19:27.752Z,95756.63
2023-03-06T16:21:55.580Z,95758.63
2023-03-06T16:24:22.261Z,95757.59
2023-03-06T16:26:49.981Z,95760.19
2023-03-06T16:29:20.824Z,95761.50
2023-03-06T16:31:47.581Z,95759.88
2023-03-06T16:34:14.496Z,95760.59
2023-03-06T16:36:41.212Z,95762.81
2023-03-06T16:39:13.123Z,95760.47
2023-03-06T16:41:39.775Z,95765.50
2023-03-06T16:44:06.423Z,95770.78
2023-03-06T16:46:33.136Z,95763.28
2023-03-06T16:48:59.766Z,95774.38
2023-03-06T16:51:26.466Z,95777.94
2023-03-06T16:53:53.237Z,95773.63
2023-03-06T16:56:20.102Z,95786.06
2023-03-06T16:58:47.041Z,95781.13
2023-03-06T17:01:17.621Z,95784.28
2023-03-06T17:03:45.078Z,95784.66
2023-03-06T17:06:21.324Z,95789.00
2023-03-06T17:08:48.085Z,95782.56
2023-03-06T17:11:14.799Z,95792.16
2023-03-06T17:13:41.457Z,95802.59
2023-03-06T17:16:08.911Z,95800.81
2023-03-06T17:18:35.598Z,95811.00
2023-03-06T17:21:02.292Z,95819.59
2023-03-06T17:23:29.060Z,95818.94
2023-03-06T17:26:09.718Z,95830.47
2023-03-06T17:28:36.726Z,95825.94
2023-03-06T17:31:10.881Z,95837.44
2023-03-06T17:33:37.611Z,95836.31
2023-03-06T17:36:04.470Z,95832.25
2023-03-06T17:38:31.180Z,95836.56
2023-03-06T17:41:02.380Z,95840.75
2023-03-06T17:43:29.029Z,95847.00
2023-03-06T17:45:55.665Z,95845.28
2023-03-06T17:48:22.295Z,95850.00
2023-03-06T17:50:57.978Z,95858.03
2023-03-06T17:53:24.609Z,95859.19
2023-03-06T17:55:51.256Z,95862.81
2023-03-06T17:58:17.910Z,95866.91
2023-03-06T18:00:44.554Z,95872.81
2023-03-06T18:03:11.275Z,95870.63
2023-03-06T18:05:37.991Z,95875.50
2023-03-06T18:08:05.263Z,95879.56
2023-03-06T18:10:31.900Z,95878.38
2023-03-06T18:12:58.581Z,95875.59
2023-03-06T18:15:25.299Z,95881.13
2023-03-06T18:17:51.982Z,95882.59
2023-03-06T18:20:20.953Z,95892.47
2023-03-06T18:22:47.662Z,95896.53
2023-03-06T18:25:14.261Z,95893.75
2023-03-06T18:27:40.896Z,95897.94
2023-03-06T18:30:08.112Z,95897.31
2023-03-06T18:32:35.136Z,95891.97
2023-03-06T18:35:01.851Z,95895.56
2023-03-06T18:37:28.474Z,95897.59
2023-03-06T18:39:55.061Z,95901.66
2023-03-06T18:42:21.659Z,95912.16
2023-03-06T18:44:48.280Z,95909.50
2023-03-06T18:47:15.212Z,95918.69
2023-03-06T18:49:44.119Z,95926.63
2023-03-06T18:52:11.223Z,95918.88
2023-03-06T18:54:37.960Z,95925.53
2023-03-06T18:57:04.652Z,95939.06
2023-03-06T18:59:31.290Z,95936.59
2023-03-06T19:01:57.976Z,95940.13
2023-03-06T19:04:25.510Z,95936.78
2023-03-06T19:06:52.146Z,95941.00
2023-03-06T19:09:18.835Z,95935.94
2023-03-06T19:11:45.481Z,95931.78
2023-03-06T19:14:12.582Z,95936.69
2023-03-06T19:16:39.299Z,95936.69
2023-03-06T19:19:06.002Z,95936.19
2023-03-06T19:21:32.685Z,95945.28
2023-03-06T19:23:59.416Z,95943.66
2023-03-06T19:26:26.142Z,95951.09
2023-03-06T19:28:53.989Z,95947.03
2023-03-06T19:31:22.268Z,95962.09
2023-03-06T19:33:49.234Z,95965.22
2023-03-06T19:36:16.451Z,95966.25
2023-03-06T19:38:43.215Z,95979.47
2023-03-06T19:41:12.920Z,95973.22
2023-03-06T19:43:42.703Z,95978.72
2023-03-06T19:46:13.095Z,95981.47
2023-03-06T19:48:40.856Z,95986.25
2023-03-06T19:51:07.589Z,95985.38
2023-03-06T19:53:34.503Z,95987.88
2023-03-06T19:56:08.643Z,95979.44
2023-03-06T19:58:35.246Z,95993.50
2023-03-06T20:01:13.884Z,95991.88
2023-03-06T20:03:40.636Z,95998.97
2023-03-06T20:06:07.525Z,95994.75
2023-03-06T20:08:34.778Z,95999.13
2023-03-06T20:11:01.429Z,95995.75
2023-03-06T20:13:28.056Z,95994.38
2023-03-06T20:15:54.757Z,96001.78
2023-03-06T20:18:21.458Z,96007.13
2023-03-06T20:21:00.664Z,96004.06
2023-03-06T20:23:27.488Z,96003.00
2023-03-06T20:25:54.098Z,96009.53
2023-03-06T20:28:21.181Z,96004.66
2023-03-06T20:30:47.971Z,96013.75
2023-03-06T20:33:14.589Z,96013.22
2023-03-06T20:35:41.871Z,96010.09
2023-03-06T20:38:09.059Z,96009.72
2023-03-06T20:40:39.497Z,96009.81
2023-03-06T20:43:06.282Z,96004.03
2023-03-06T20:45:33.036Z,96010.22
2023-03-06T20:47:59.677Z,96000.00
2023-03-06T20:50:26.360Z,96009.00
2023-03-06T20:52:54.449Z,95995.53
2023-03-06T20:55:21.129Z,95997.47
2023-03-06T20:57:51.360Z,96001.50
2023-03-06T21:00:18.734Z,95998.00
2023-03-06T21:02:45.489Z,96000.41
2023-03-06T21:05:12.323Z,95996.22
2023-03-06T21:07:39.931Z,96003.69
2023-03-06T21:10:07.287Z,96000.75
2023-03-06T21:12:33.928Z,95997.84
2023-03-06T21:15:00.541Z,95993.94
2023-03-06T21:17:27.466Z,95994.03
2023-03-06T21:19:54.125Z,95995.75
2023-03-06T21:22:20.741Z,95999.00
2023-03-06T21:24:47.375Z,95985.84
2023-03-06T21:27:14.110Z,95997.19
2023-03-06T21:29:40.872Z,95998.00
2023-03-06T21:32:07.778Z,95996.22
2023-03-06T21:34:34.433Z,95990.94
2023-03-06T21:37:01.111Z,95995.91
2023-03-06T21:39:27.880Z,95996.66
2023-03-06T21:41:54.572Z,95988.84
2023-03-06T21:44:21.234Z,95995.50
2023-03-06T21:46:47.883Z,95992.25
2023-03-06T21:49:17.490Z,95990.66
2023-03-06T21:51:44.243Z,95983.72
2023-03-06T21:54:10.883Z,95976.00
2023-03-06T21:56:37.561Z,95978.25
2023-03-06T21:59:04.264Z,95984.00
2023-03-06T22:01:30.938Z,95981.41
2023-03-06T22:03:57.688Z,95981.78
2023-03-06T22:06:25.532Z,95982.06
2023-03-06T22:08:52.366Z,95982.06
2023-03-06T22:11:20.193Z,95978.00
2023-03-06T22:13:46.893Z,95969.56
2023-03-06T22:16:13.822Z,95970.16
2023-03-06T22:18:43.533Z,95966.66
2023-03-06T22:21:10.860Z,95972.84
2023-03-06T22:23:37.629Z,95973.06
2023-03-06T22:26:05.078Z,95969.16
2023-03-06T22:28:32.375Z,95972.84
2023-03-06T22:31:09.822Z,95972.53
2023-03-06T22:33:36.581Z,95975.44
2023-03-06T22:36:04.624Z,95971.13
2023-03-06T22:38:32.155Z,95977.88
2023-03-06T22:40:58.882Z,95975.44
2023-03-06T22:43:25.545Z,95973.78
2023-03-06T22:45:52.272Z,95979.88
2023-03-06T22:48:19.778Z,95976.84
2023-03-06T22:50:46.568Z,95966.81
2023-03-06T22:53:13.208Z,95973.41
2023-03-06T22:55:39.841Z,95971.53
2023-03-06T22:58:06.533Z,95973.19
2023-03-06T23:00:33.242Z,95971.72
2023-03-06T23:02:59.937Z,95963.13
2023-03-06T23:05:29.164Z,95961.50
2023-03-06T23:07:56.169Z,95961.44
2023-03-06T23:10:22.830Z,95958.97
2023-03-06T23:12:49.685Z,95962.28
2023-03-06T23:15:16.443Z,95962.28
2023-03-06T23:17:43.121Z,95963.88
2023-03-06T23:20:10.561Z,95962.69
2023-03-06T23:22:37.218Z,95962.88
2023-03-06T23:25:04.008Z,95962.09
2023-03-06T23:27:30.646Z,95964.81
2023-03-06T23:29:57.317Z,95967.50
2023-03-06T23:32:24.061Z,95954.16
2023-03-06T23:34:50.973Z,95951.44
2023-03-06T23:37:17.690Z,95962.28
2023-03-06T23:39:44.369Z,95958.38
2023-03-06T23:42:11.028Z,95954.53
2023-03-06T23:44:37.656Z,95946.47
2023-03-06T23:47:04.479Z,95948.72
2023-03-06T23:49:31.165Z,95948.38
2023-03-06T23:51:57.836Z,95954.13
2023-03-06T23:54:24.474Z,95953.09
2023-03-06T23:56:51.074Z,95953.91
2023-03-06T23:59:17.726Z,95953.31
